Terminal Aerodrome Forecast
Issued by NWS Springfield, MO

Home | Current Version | Previous Version | Text Only | Print | Product List | Glossary On
Versions: 1 2 3 4 5 6 7 8 9 10 11 12 13 14 15 16 17 18 19 20 21 22 23 24 25 26 27 28 29
000
FTUS43 KSGF 211500 AAA
TAFSGF
TAF AMD
KSGF 211543Z 2116/2212 17007KT P6SM BKN006 OVC025
      TEMPO 2116/2119 SCT006 OVC025
     FM211900 17011KT P6SM OVC025
     FM220000 16015KT P6SM OVC040=

USA.gov is the U.S. government's official web portal to all federal, state and local government web resources and services.